Ecorse, Michigan
Current Conditions -  °F | °C
As of 6:00 PM on Wednesday 22 Oct 2014 (Local Time) from CYQG Reporting Station
Few Clouds Few Clouds  
Wind Chill: 54°   Ceiling: Unl
Heat Index: 54°   Visibility: 15mi
Dew Point: 43°   Wind: 8mph
Humidity: 67%   Direction: 20°NNE
Pressure: 30.27"   Gusts: NA
Location:  42.26°N, 83.14°W
Report Text: CYQG 222200Z 02007KT 15SM FEW034 12/06 A3027 RMK SC2 SLP255
Loading
Personal Weather Stations






























Interactive Weather Map
Tropical Storm Tracking
New forecast layout! Learn more

10-Day Weather Forecast

Advertisements
Track Severe Weather on mobile